createdAt,value
2022-07-29T00:00:06.134Z,74.40
2022-07-29T00:02:33.219Z,74.71
2022-07-29T00:05:00.239Z,75.47
2022-07-29T00:07:27.164Z,75.44
2022-07-29T00:09:54.127Z,75.50
2022-07-29T00:12:25.541Z,75.47
2022-07-29T00:14:57.886Z,75.57
2022-07-29T00:17:25.481Z,75.72
2022-07-29T00:19:52.686Z,75.43
2022-07-29T00:22:20.480Z,75.83
2022-07-29T00:24:50.106Z,75.90
2022-07-29T00:27:17.875Z,75.92
2022-07-29T00:29:44.637Z,76.18
2022-07-29T00:32:11.461Z,76.12
2022-07-29T00:34:56.685Z,76.24
2022-07-29T00:37:23.567Z,76.36
2022-07-29T00:39:50.307Z,76.07
2022-07-29T00:42:17.725Z,76.19
2022-07-29T00:44:44.909Z,75.86
2022-07-29T00:47:12.838Z,76.60
2022-07-29T00:49:43.259Z,76.20
2022-07-29T00:52:11.701Z,76.15
2022-07-29T00:54:44.660Z,76.33
2022-07-29T00:57:12.349Z,77.18
2022-07-29T00:59:39.161Z,76.79
2022-07-29T01:02:06.800Z,77.49
2022-07-29T01:04:34.375Z,77.08
2022-07-29T01:07:03.057Z,76.92
2022-07-29T01:09:43.168Z,77.24
2022-07-29T01:12:20.165Z,77.04
2022-07-29T01:14:48.379Z,77.09
2022-07-29T01:17:53.364Z,77.17
2022-07-29T01:20:45.026Z,77.32
2022-07-29T01:23:14.871Z,77.43
2022-07-29T01:26:16.491Z,77.75
2022-07-29T01:29:13.767Z,77.89
2022-07-29T01:31:58.776Z,77.42
2022-07-29T01:34:33.581Z,77.63
2022-07-29T01:37:10.179Z,77.90
2022-07-29T01:39:39.648Z,77.99
2022-07-29T01:42:06.737Z,78.13
2022-07-29T01:44:51.726Z,78.41
2022-07-29T01:47:22.388Z,78.61
2022-07-29T01:49:52.372Z,78.47
2022-07-29T01:52:40.594Z,78.61
2022-07-29T01:55:18.874Z,78.49
2022-07-29T01:57:48.609Z,78.38
2022-07-29T02:00:17.006Z,78.26
2022-07-29T02:02:46.761Z,78.50
2022-07-29T02:05:16.758Z,78.78
2022-07-29T02:07:45.387Z,78.64
2022-07-29T02:10:14.243Z,78.82
2022-07-29T02:12:43.371Z,78.53
2022-07-29T02:15:17.894Z,78.31
2022-07-29T02:17:49.887Z,78.72
2022-07-29T02:20:17.382Z,78.95
2022-07-29T02:22:46.186Z,79.17
2022-07-29T02:25:14.922Z,79.01
2022-07-29T02:27:43.566Z,79.44
2022-07-29T02:30:11.719Z,79.38
2022-07-29T02:32:41.132Z,79.40
2022-07-29T02:35:10.238Z,79.40
2022-07-29T02:37:38.588Z,79.43
2022-07-29T02:40:09.933Z,79.22
2022-07-29T02:42:38.295Z,79.26
2022-07-29T02:45:07.046Z,79.30
2022-07-29T02:47:44.379Z,79.36
2022-07-29T02:50:33.688Z,79.31
2022-07-29T02:53:06.500Z,79.27
2022-07-29T02:55:41.184Z,79.26
2022-07-29T02:58:10.711Z,79.25
2022-07-29T03:00:40.024Z,79.29
2022-07-29T03:03:12.085Z,79.29
2022-07-29T03:05:40.213Z,79.19
2022-07-29T03:08:10.172Z,79.28
2022-07-29T03:10:39.830Z,79.51
2022-07-29T03:13:08.785Z,79.51
2022-07-29T03:15:36.708Z,79.70
2022-07-29T03:18:04.806Z,79.30
2022-07-29T03:20:31.858Z,79.88
2022-07-29T03:22:58.709Z,79.70
2022-07-29T03:25:25.918Z,79.61
2022-07-29T03:27:52.743Z,79.83
2022-07-29T03:30:21.911Z,79.42
2022-07-29T03:32:52.146Z,79.52
2022-07-29T03:35:21.053Z,79.33
2022-07-29T03:37:47.973Z,79.21
2022-07-29T03:40:23.003Z,79.31
2022-07-29T03:42:52.298Z,79.30
2022-07-29T03:45:20.549Z,79.44
2022-07-29T03:47:53.822Z,79.39
2022-07-29T03:50:24.296Z,79.72
2022-07-29T03:52:51.150Z,79.53
2022-07-29T03:55:17.998Z,79.36
2022-07-29T03:57:46.353Z,79.39
2022-07-29T04:00:13.568Z,79.40
2022-07-29T04:02:41.214Z,79.01
2022-07-29T04:05:13.769Z,78.44
2022-07-29T04:07:41.746Z,78.22
2022-07-29T04:10:09.752Z,78.36
2022-07-29T04:12:36.816Z,78.16
2022-07-29T04:15:05.055Z,77.83
2022-07-29T04:17:31.856Z,77.37
2022-07-29T04:19:58.798Z,77.40
2022-07-29T04:22:25.755Z,76.97
2022-07-29T04:24:54.213Z,77.25
2022-07-29T04:27:20.939Z,76.92
2022-07-29T04:29:56.515Z,76.51
2022-07-29T04:32:24.079Z,76.12
2022-07-29T04:34:50.836Z,76.35
2022-07-29T04:37:17.626Z,76.05
2022-07-29T04:39:44.354Z,75.70
2022-07-29T04:42:11.191Z,75.01
2022-07-29T04:44:39.611Z,74.79
2022-07-29T04:47:09.631Z,74.62
2022-07-29T04:49:39.167Z,74.27
2022-07-29T04:52:06.846Z,73.33
2022-07-29T04:54:34.067Z,72.82
2022-07-29T04:57:00.826Z,72.68
2022-07-29T04:59:27.986Z,72.38
2022-07-29T05:01:54.954Z,72.94
2022-07-29T05:04:21.871Z,73.44
2022-07-29T05:06:48.993Z,73.48
2022-07-29T05:09:15.915Z,73.73
2022-07-29T05:11:42.682Z,74.07
2022-07-29T05:14:09.592Z,73.73
2022-07-29T05:16:36.394Z,73.66
2022-07-29T05:19:03.220Z,73.80
2022-07-29T05:21:29.996Z,73.80
2022-07-29T05:23:56.786Z,73.42
2022-07-29T05:26:23.469Z,72.70
2022-07-29T05:28:50.312Z,71.66
2022-07-29T05:31:17.444Z,70.66
2022-07-29T05:33:44.366Z,69.71
2022-07-29T05:36:11.228Z,67.60
2022-07-29T05:38:38.378Z,65.65
2022-07-29T05:41:06.037Z,62.78
2022-07-29T05:43:33.013Z,62.99
2022-07-29T05:46:00.021Z,63.15
2022-07-29T05:48:26.888Z,63.18
2022-07-29T05:50:53.780Z,63.89
2022-07-29T05:53:21.092Z,62.98
2022-07-29T05:55:48.854Z,61.08
2022-07-29T05:58:15.652Z,61.50
2022-07-29T06:00:42.795Z,60.90
2022-07-29T06:03:09.576Z,61.50
2022-07-29T06:05:36.574Z,62.51
2022-07-29T06:08:03.646Z,61.53
2022-07-29T06:10:30.378Z,60.22
2022-07-29T06:12:57.391Z,58.97
2022-07-29T06:15:24.198Z,57.27
2022-07-29T06:17:59.412Z,59.77
2022-07-29T06:20:31.219Z,60.15
2022-07-29T06:22:58.723Z,59.46
2022-07-29T06:25:25.601Z,60.34
2022-07-29T06:27:53.174Z,60.12
2022-07-29T06:30:20.078Z,58.66
2022-07-29T06:32:47.219Z,57.58
2022-07-29T06:38:00.566Z,56.66
2022-07-29T06:40:46.193Z,55.55
2022-07-29T06:43:13.086Z,53.48
2022-07-29T06:45:42.297Z,54.14
2022-07-29T06:48:10.587Z,52.34
2022-07-29T06:50:37.498Z,52.89
2022-07-29T06:53:04.787Z,53.62
2022-07-29T06:55:31.732Z,53.75
2022-07-29T06:57:58.564Z,51.66
2022-07-29T07:00:25.439Z,50.79
2022-07-29T07:02:52.307Z,49.25
2022-07-29T07:05:19.112Z,48.72
2022-07-29T07:07:45.937Z,47.15
2022-07-29T07:10:12.840Z,46.99
2022-07-29T07:12:39.634Z,45.57
2022-07-29T07:15:07.095Z,44.93
2022-07-29T07:17:33.904Z,44.29
2022-07-29T07:20:00.652Z,43.47
2022-07-29T07:22:27.310Z,42.22
2022-07-29T07:24:54.102Z,41.61
2022-07-29T07:27:20.841Z,41.88
2022-07-29T07:29:47.589Z,40.79
2022-07-29T07:32:17.133Z,41.97
2022-07-29T07:34:44.697Z,41.92
2022-07-29T07:37:12.304Z,41.75
2022-07-29T07:39:39.135Z,39.89
2022-07-29T07:42:06.150Z,39.47
2022-07-29T07:44:36.478Z,40.53
2022-07-29T07:47:13.485Z,39.87
2022-07-29T07:49:40.248Z,39.49
2022-07-29T07:52:08.468Z,39.49
2022-07-29T07:54:35.503Z,40.26
2022-07-29T07:57:02.273Z,41.45
2022-07-29T07:59:29.048Z,41.91
2022-07-29T08:01:56.775Z,42.26
2022-07-29T08:04:28.367Z,42.09
2022-07-29T08:06:56.619Z,41.45
2022-07-29T08:09:29.746Z,41.68
2022-07-29T08:11:58.531Z,43.34
2022-07-29T08:14:25.514Z,43.83
2022-07-29T08:16:52.617Z,44.52
2022-07-29T08:19:19.536Z,43.51
2022-07-29T08:21:46.560Z,43.81
2022-07-29T08:24:31.799Z,43.58
2022-07-29T08:26:58.627Z,44.16
2022-07-29T08:29:25.448Z,44.85
2022-07-29T08:31:52.447Z,44.58
2022-07-29T08:34:19.377Z,44.41
2022-07-29T08:36:54.632Z,44.77
2022-07-29T08:39:21.469Z,45.28
2022-07-29T08:41:57.262Z,45.09
2022-07-29T08:44:30.563Z,45.07
2022-07-29T08:46:58.149Z,44.31
2022-07-29T08:49:25.001Z,44.67
2022-07-29T08:51:52.560Z,43.25
2022-07-29T08:54:19.925Z,44.71
2022-07-29T08:56:50.974Z,42.22
2022-07-29T08:59:22.001Z,41.84
2022-07-29T09:01:55.000Z,42.92
2022-07-29T09:04:23.313Z,40.71
2022-07-29T09:06:54.279Z,40.25
2022-07-29T09:09:21.062Z,39.36
2022-07-29T09:11:47.887Z,38.74
2022-07-29T09:14:14.815Z,40.05
2022-07-29T09:16:54.543Z,38.70
2022-07-29T09:19:22.484Z,39.31
2022-07-29T09:22:03.322Z,38.84
2022-07-29T09:24:47.755Z,38.24
2022-07-29T09:27:27.603Z,37.77
2022-07-29T09:30:01.888Z,38.27
2022-07-29T09:32:29.229Z,38.58
2022-07-29T09:35:22.127Z,36.74
2022-07-29T09:37:49.612Z,37.84
2022-07-29T09:40:22.007Z,38.74
2022-07-29T09:42:49.620Z,38.87
2022-07-29T09:45:30.695Z,39.67
2022-07-29T09:48:01.350Z,38.75
2022-07-29T09:50:42.107Z,39.12
2022-07-29T09:53:12.143Z,39.58
2022-07-29T09:55:52.912Z,38.59
2022-07-29T09:58:22.338Z,38.62
2022-07-29T10:00:51.887Z,39.20
2022-07-29T10:03:19.767Z,40.48
2022-07-29T10:06:04.343Z,40.19
2022-07-29T10:08:32.362Z,38.90
2022-07-29T10:11:14.059Z,38.88
2022-07-29T10:13:42.846Z,38.60
2022-07-29T10:16:10.025Z,39.61
2022-07-29T10:18:40.069Z,38.40
2022-07-29T10:21:08.072Z,37.88
2022-07-29T10:23:47.104Z,37.59
2022-07-29T10:26:15.604Z,36.60
2022-07-29T10:28:42.345Z,35.15
2022-07-29T10:31:19.714Z,33.66
2022-07-29T10:34:25.562Z,34.15
2022-07-29T10:36:55.498Z,33.46
2022-07-29T10:39:41.691Z,31.84
2022-07-29T10:42:29.652Z,31.63
2022-07-29T10:45:00.672Z,32.31
2022-07-29T10:47:28.041Z,33.34
2022-07-29T10:50:05.865Z,34.08
2022-07-29T10:53:05.215Z,34.02
2022-07-29T10:55:45.556Z,35.06
2022-07-29T10:58:20.067Z,34.16
2022-07-29T11:00:50.509Z,34.40
2022-07-29T11:03:52.197Z,35.70
2022-07-29T11:06:26.551Z,34.94
2022-07-29T11:09:18.307Z,35.15
2022-07-29T11:11:58.378Z,35.11
2022-07-29T11:15:03.620Z,36.27
2022-07-29T11:17:47.057Z,36.90
2022-07-29T11:20:39.632Z,36.10
2022-07-29T11:23:33.858Z,36.10
2022-07-29T11:26:12.874Z,35.86
2022-07-29T11:28:50.794Z,35.99
2022-07-29T11:31:36.109Z,37.88
2022-07-29T11:34:33.217Z,36.59
2022-07-29T11:37:07.675Z,36.60
2022-07-29T11:39:37.040Z,35.46
2022-07-29T11:42:32.528Z,35.99
2022-07-29T11:45:08.889Z,36.14
2022-07-29T11:50:46.297Z,34.98
2022-07-29T11:53:16.260Z,34.76
2022-07-29T11:55:50.577Z,35.35
2022-07-29T11:58:26.333Z,36.16
2022-07-29T12:00:55.727Z,35.45
2022-07-29T12:03:33.301Z,35.44
2022-07-29T12:06:02.525Z,34.07
2022-07-29T12:08:30.475Z,34.04
2022-07-29T12:10:57.346Z,34.62
2022-07-29T12:13:37.140Z,33.76
2022-07-29T12:16:05.638Z,35.16
2022-07-29T12:18:33.076Z,35.84
2022-07-29T12:21:04.570Z,35.28
2022-07-29T12:23:35.567Z,35.74
2022-07-29T12:26:07.587Z,34.82
2022-07-29T12:28:39.667Z,35.44
2022-07-29T12:31:08.256Z,35.82
2022-07-29T12:33:36.151Z,36.17
2022-07-29T12:36:10.318Z,35.59
2022-07-29T12:38:41.891Z,35.59
2022-07-29T12:41:09.431Z,35.25
2022-07-29T12:43:36.591Z,36.12
2022-07-29T12:46:15.247Z,35.97
2022-07-29T12:48:43.709Z,35.78
2022-07-29T12:51:12.821Z,36.22
2022-07-29T12:53:40.103Z,35.92
2022-07-29T12:56:40.518Z,36.05
2022-07-29T12:59:22.704Z,34.02
2022-07-29T13:01:52.243Z,32.63
2022-07-29T13:04:31.948Z,31.75
2022-07-29T13:07:04.419Z,31.33
2022-07-29T13:10:17.923Z,31.66
2022-07-29T13:13:10.232Z,30.19
2022-07-29T13:15:50.032Z,29.58
2022-07-29T13:18:34.536Z,29.39
2022-07-29T13:21:16.639Z,29.36
2022-07-29T13:23:45.895Z,30.13
2022-07-29T13:26:12.888Z,29.50
2022-07-29T13:28:39.606Z,29.23
2022-07-29T13:31:06.536Z,29.75
2022-07-29T13:33:33.392Z,30.01
2022-07-29T13:36:00.132Z,28.51
2022-07-29T13:38:31.061Z,27.78
2022-07-29T13:40:58.821Z,27.13
2022-07-29T13:43:25.560Z,27.49
2022-07-29T13:45:53.020Z,29.81
2022-07-29T13:48:19.852Z,28.60
2022-07-29T13:50:47.569Z,28.82
2022-07-29T13:53:17.852Z,28.27
2022-07-29T13:55:45.317Z,27.48
2022-07-29T13:58:12.125Z,27.30
2022-07-29T14:00:38.916Z,30.87
2022-07-29T14:03:07.313Z,31.80
2022-07-29T14:05:34.045Z,33.53
2022-07-29T14:08:00.744Z,33.19
2022-07-29T14:10:27.500Z,35.06
2022-07-29T14:12:54.234Z,37.05
2022-07-29T14:15:21.288Z,36.76
2022-07-29T14:17:48.022Z,37.53
2022-07-29T14:20:16.460Z,37.86
2022-07-29T14:22:45.099Z,38.49
2022-07-29T14:25:14.885Z,38.12
2022-07-29T14:27:44.198Z,37.88
2022-07-29T14:30:11.565Z,37.42
2022-07-29T14:32:38.388Z,36.90
2022-07-29T14:35:06.513Z,35.47
2022-07-29T14:37:39.043Z,36.12
2022-07-29T14:40:09.234Z,35.40
2022-07-29T14:42:37.083Z,34.79
2022-07-29T14:45:05.637Z,33.23
2022-07-29T14:47:32.578Z,33.32
2022-07-29T14:49:59.464Z,32.84
2022-07-29T14:52:26.553Z,33.37
2022-07-29T14:54:53.402Z,34.02
2022-07-29T14:57:20.762Z,33.14
2022-07-29T14:59:47.485Z,32.37
2022-07-29T15:02:14.406Z,32.84
2022-07-29T15:04:41.314Z,33.02
2022-07-29T15:07:09.290Z,32.93
2022-07-29T15:09:36.340Z,33.49
2022-07-29T15:12:08.963Z,35.48
2022-07-29T15:14:35.798Z,35.23
2022-07-29T15:17:02.694Z,35.33
2022-07-29T15:19:31.554Z,35.84
2022-07-29T15:21:59.758Z,35.66
2022-07-29T15:24:27.034Z,35.15
2022-07-29T15:26:55.105Z,34.92
2022-07-29T15:29:22.377Z,35.13
2022-07-29T15:31:49.304Z,35.93
2022-07-29T15:34:16.622Z,35.57
2022-07-29T15:36:52.949Z,35.44
2022-07-29T15:39:20.989Z,33.84
2022-07-29T15:41:47.909Z,33.86
2022-07-29T15:44:15.376Z,33.09
2022-07-29T15:47:01.773Z,33.25
2022-07-29T15:49:47.886Z,31.92
2022-07-29T15:52:26.086Z,32.67
2022-07-29T15:54:55.465Z,32.83
2022-07-29T15:57:22.919Z,33.77
2022-07-29T15:59:49.778Z,34.07
2022-07-29T16:02:17.672Z,33.47
2022-07-29T16:04:44.691Z,33.01
2022-07-29T16:07:11.357Z,33.76
2022-07-29T16:09:38.522Z,34.05
2022-07-29T16:12:10.005Z,35.56
2022-07-29T16:14:44.417Z,36.48
2022-07-29T16:17:14.413Z,37.17
2022-07-29T16:19:43.458Z,38.22
2022-07-29T16:22:10.700Z,39.41
2022-07-29T16:24:38.851Z,39.78
2022-07-29T16:27:05.681Z,40.02
2022-07-29T16:29:32.411Z,40.82
2022-07-29T16:31:59.212Z,40.68
2022-07-29T16:34:25.947Z,41.60
2022-07-29T16:36:52.668Z,43.71
2022-07-29T16:39:19.388Z,43.84
2022-07-29T16:41:46.173Z,44.22
2022-07-29T16:44:13.060Z,45.21
2022-07-29T16:46:41.460Z,45.65
2022-07-29T16:49:08.422Z,45.93
2022-07-29T16:51:35.719Z,45.98
2022-07-29T16:54:02.532Z,46.85
2022-07-29T16:56:29.251Z,47.31
2022-07-29T16:58:58.179Z,47.86
2022-07-29T17:01:25.019Z,48.30
2022-07-29T17:04:09.990Z,48.76
2022-07-29T17:06:38.823Z,49.13
2022-07-29T17:09:07.342Z,49.44
2022-07-29T17:11:52.883Z,49.73
2022-07-29T17:14:27.605Z,50.21
2022-07-29T17:17:00.973Z,50.19
2022-07-29T17:19:33.641Z,50.85
2022-07-29T17:22:09.474Z,50.87
2022-07-29T17:24:40.950Z,50.87
2022-07-29T17:27:08.738Z,50.95
2022-07-29T17:29:36.058Z,51.10
2022-07-29T17:32:03.619Z,51.37
2022-07-29T17:34:30.863Z,51.29
2022-07-29T17:36:57.977Z,51.35
2022-07-29T17:39:24.965Z,51.63
2022-07-29T17:41:51.994Z,52.14
2022-07-29T17:44:18.786Z,52.71
2022-07-29T17:46:45.625Z,52.98
2022-07-29T17:49:12.456Z,52.69
2022-07-29T17:51:39.233Z,53.22
2022-07-29T17:54:05.997Z,53.52
2022-07-29T17:56:32.729Z,53.98
2022-07-29T17:59:01.517Z,54.51
2022-07-29T18:01:28.607Z,54.56
2022-07-29T18:03:59.789Z,55.23
2022-07-29T18:06:27.208Z,54.84
2022-07-29T18:08:55.236Z,55.33
2022-07-29T18:11:23.317Z,55.08
2022-07-29T18:13:50.150Z,54.98
2022-07-29T18:16:17.180Z,55.23
2022-07-29T18:18:44.935Z,55.26
2022-07-29T18:21:12.141Z,55.32
2022-07-29T18:23:39.158Z,55.23
2022-07-29T18:26:05.849Z,55.72
2022-07-29T18:28:32.800Z,55.52
2022-07-29T18:31:00.705Z,55.78
2022-07-29T18:33:27.832Z,56.15
2022-07-29T18:36:04.215Z,56.20
2022-07-29T18:38:37.847Z,56.18
2022-07-29T18:41:04.788Z,56.42
2022-07-29T18:43:31.452Z,56.53
2022-07-29T18:45:58.200Z,56.92
2022-07-29T18:48:25.408Z,56.83
2022-07-29T18:50:52.095Z,57.20
2022-07-29T18:53:20.016Z,57.78
2022-07-29T18:55:46.854Z,58.00
2022-07-29T18:58:13.533Z,58.95
2022-07-29T19:00:40.475Z,59.17
2022-07-29T19:03:08.417Z,59.42
2022-07-29T19:05:35.542Z,59.70
2022-07-29T19:08:02.373Z,59.85
2022-07-29T19:10:29.564Z,60.10
2022-07-29T19:12:56.809Z,59.86
2022-07-29T19:15:23.723Z,60.10
2022-07-29T19:17:50.626Z,60.36
2022-07-29T19:20:17.496Z,60.33
2022-07-29T19:22:45.037Z,60.37
2022-07-29T19:25:12.111Z,60.86
2022-07-29T19:27:39.163Z,60.92
2022-07-29T19:30:08.051Z,61.03
2022-07-29T19:32:36.084Z,61.38
2022-07-29T19:35:22.443Z,61.50
2022-07-29T19:37:49.110Z,61.99
2022-07-29T19:40:16.682Z,62.22
2022-07-29T19:42:44.105Z,62.18
2022-07-29T19:45:11.913Z,62.73
2022-07-29T19:47:38.700Z,62.98
2022-07-29T19:50:06.106Z,63.26
2022-07-29T19:52:34.084Z,63.14
2022-07-29T19:55:07.067Z,63.18
2022-07-29T19:57:40.566Z,63.43
2022-07-29T20:00:11.389Z,63.31
2022-07-29T20:02:39.508Z,63.46
2022-07-29T20:05:07.009Z,63.55
2022-07-29T20:07:34.089Z,63.61
2022-07-29T20:10:01.013Z,63.73
2022-07-29T20:12:27.783Z,63.81
2022-07-29T20:14:54.601Z,64.05
2022-07-29T20:17:24.370Z,64.24
2022-07-29T20:19:51.779Z,64.02
2022-07-29T20:22:21.294Z,63.93
2022-07-29T20:24:48.721Z,64.05
2022-07-29T20:27:15.569Z,64.59
2022-07-29T20:29:42.585Z,64.64
2022-07-29T20:32:09.533Z,65.56
2022-07-29T20:34:36.240Z,65.37
2022-07-29T20:37:03.275Z,65.36
2022-07-29T20:39:30.447Z,65.86
2022-07-29T20:41:57.398Z,65.73
2022-07-29T20:44:24.419Z,66.19
2022-07-29T20:46:51.282Z,66.13
2022-07-29T20:49:18.101Z,66.23
2022-07-29T20:51:44.979Z,66.43
2022-07-29T20:54:12.395Z,66.43
2022-07-29T20:56:39.529Z,66.81
2022-07-29T20:59:06.333Z,66.63
2022-07-29T21:01:33.278Z,67.11
2022-07-29T21:04:01.604Z,66.98
2022-07-29T21:06:28.687Z,67.06
2022-07-29T21:08:59.763Z,67.13
2022-07-29T21:11:43.321Z,67.30
2022-07-29T21:14:27.196Z,67.63
2022-07-29T21:16:54.079Z,67.41
2022-07-29T21:19:20.870Z,67.55
2022-07-29T21:21:47.580Z,67.56
2022-07-29T21:24:14.397Z,67.59
2022-07-29T21:26:41.220Z,67.47
2022-07-29T21:29:07.997Z,67.65
2022-07-29T21:31:34.811Z,67.66
2022-07-29T21:34:01.702Z,68.01
2022-07-29T21:36:47.897Z,68.10
2022-07-29T21:39:15.267Z,67.94
2022-07-29T21:41:41.951Z,68.03
2022-07-29T21:44:08.837Z,67.90
2022-07-29T21:46:36.443Z,68.53
2022-07-29T21:49:03.482Z,68.35
2022-07-29T21:51:30.988Z,68.58
2022-07-29T21:53:57.765Z,68.57
2022-07-29T21:56:27.571Z,68.45
2022-07-29T21:58:55.311Z,68.81
2022-07-29T22:01:22.220Z,68.61
2022-07-29T22:03:49.185Z,69.13
2022-07-29T22:06:18.155Z,69.24
2022-07-29T22:08:46.061Z,69.33
2022-07-29T22:11:13.496Z,69.22
2022-07-29T22:13:40.360Z,69.45
2022-07-29T22:16:10.104Z,69.29
2022-07-29T22:18:37.136Z,69.62
2022-07-29T22:21:03.949Z,69.36
2022-07-29T22:23:30.995Z,69.45
2022-07-29T22:25:57.674Z,69.78
2022-07-29T22:28:24.415Z,70.00
2022-07-29T22:30:51.347Z,69.82
2022-07-29T22:33:18.349Z,70.11
2022-07-29T22:35:48.725Z,69.87
2022-07-29T22:38:19.252Z,69.92
2022-07-29T22:40:48.724Z,70.01
2022-07-29T22:43:17.393Z,70.27
2022-07-29T22:45:44.123Z,70.57
2022-07-29T22:48:11.206Z,70.32
2022-07-29T22:50:38.283Z,70.19
2022-07-29T22:53:05.073Z,70.12
2022-07-29T22:55:31.806Z,70.45
2022-07-29T22:57:58.793Z,70.36
2022-07-29T23:00:25.604Z,70.30
2022-07-29T23:02:52.413Z,69.97
2022-07-29T23:05:19.184Z,70.20
2022-07-29T23:07:45.995Z,70.67
2022-07-29T23:10:12.711Z,70.45
2022-07-29T23:12:39.443Z,70.54
2022-07-29T23:15:06.669Z,70.34
2022-07-29T23:17:36.598Z,70.77
2022-07-29T23:20:06.825Z,70.63
2022-07-29T23:22:34.088Z,70.39
2022-07-29T23:25:00.761Z,70.62
2022-07-29T23:27:27.527Z,70.80
2022-07-29T23:29:54.268Z,70.46
2022-07-29T23:32:20.999Z,70.23
2022-07-29T23:34:47.739Z,69.99
2022-07-29T23:37:14.522Z,70.51
2022-07-29T23:39:41.368Z,70.28
2022-07-29T23:42:08.089Z,70.29
2022-07-29T23:44:34.823Z,70.15
2022-07-29T23:47:01.913Z,70.03
2022-07-29T23:49:28.910Z,70.03
2022-07-29T23:51:55.538Z,69.90
2022-07-29T23:54:22.262Z,69.94
2022-07-29T23:56:49.002Z,70.09
2022-07-29T23:59:15.675Z,69.90
